Garre, Argentina
Current Conditions -  °F | °C
As of 11:00 AM on Sunday 25 Jan 2015 (Local Time) from SAOC Reporting Station
Scattered Clouds Scattered Clouds  
Wind Chill: 82°   Ceiling: Unl
Heat Index: 87°   Visibility: 6mi
Dew Point: 72°   Wind: 3mph
Humidity: 70%   Direction: 290°WNW
Pressure: 29.85"   Gusts: NA
Location:  36.57°S, 62.6°W
Report Text: SAOC 251400Z 29003KT 9999 FEW030 SCT10028/22 Q1011
Loading
Personal Weather Stations






























Interactive Weather Map New forecast layout! Learn more

10-Day Weather Forecast

Advertisements
Track Severe Weather on mobile